This is the latest recevied weather packets stored in our database for station/object N0QV. If no packets are shown the sender has not sent any weather packets the latest 10 day(s).
| Time | Temp. | Humidity | Pressure | Rain* | Wind** | Luminosity | Snow |
|---|---|---|---|---|---|---|---|
| 1777684555 | 10° C | 36% | 1019.4 hPa | 0 mm | - | 3 W/m² | - |
| 1777684251 | 10.56° C | 34% | 1019.2 hPa | 0 mm | - | 6 W/m² | - |
| 1777683949 | 10.56° C | 34% | 1019.5 hPa | 0 mm | - | 8 W/m² | - |
| 1777683645 | 10.56° C | 34% | 1019.2 hPa | 0 mm | - | 11 W/m² | - |
| 1777683343 | 10.56° C | 34% | 1019.4 hPa | 0 mm | - | 15 W/m² | - |
| 1777683041 | 10.56° C | 33% | 1019.3 hPa | 0 mm | - | 19 W/m² | - |
| 1777682736 | 10.56° C | 35% | 1019.3 hPa | 0 mm | - | 23 W/m² | - |
| 1777682433 | 11.11° C | 33% | 1019.2 hPa | 0 mm | - | 27 W/m² | - |
| 1777682131 | 11.11° C | 33% | 1019.1 hPa | 0 mm | - | 31 W/m² | - |
| 1777681827 | 11.67° C | 33% | 1018.9 hPa | 0 mm | - | 42 W/m² | - |
| 1777681524 | 11.67° C | 32% | 1019 hPa | 0 mm | - | 43 W/m² | - |
| 1777681221 | 11.67° C | 32% | 1019.1 hPa | 0 mm | - | 59 W/m² | - |
| 1777680919 | 11.67° C | 32% | 1019.1 hPa | 0 mm | - | 70 W/m² | - |
| 1777680616 | 11.67° C | 31% | 1019.2 hPa | 0 mm | - | 50 W/m² | - |
| 1777680314 | 12.22° C | 32% | 1018.9 hPa | 0 mm | - | 83 W/m² | - |
| 1777680011 | 12.22° C | 31% | 1018.8 hPa | 0 mm | - | 96 W/m² | - |
| 1777679707 | 12.22° C | 31% | 1018.9 hPa | 0 mm | - | 81 W/m² | - |
| 1777679401 | 12.22° C | 32% | 1018.9 hPa | 0 mm | - | 76 W/m² | - |
| 1777679098 | 12.78° C | 32% | 1018.8 hPa | 0 mm | - | 105 W/m² | - |
| 1777678797 | 12.78° C | 30% | 1018.7 hPa | 0 mm | - | 105 W/m² | - |
| 1777678495 | 12.78° C | 31% | 1019 hPa | 0 mm | - | 153 W/m² | - |
| 1777678190 | 13.33° C | 32% | 1018.8 hPa | 0 mm | - | 163 W/m² | - |
| 1777677887 | 12.22° C | 34% | 1018.9 hPa | 0 mm | - | 161 W/m² | - |
| 1777677584 | 12.22° C | 32% | 1018.8 hPa | 0 mm | - | 171 W/m² | - |
| 1777677283 | 12.22° C | 32% | 1018.9 hPa | 0 mm | - | 185 W/m² | - |
* Rain latest hour (hover to see other rain measurements)
** Current wind speed in m/s (hover to see current wind gust speed)